createdAt,value
2022-08-17T00:00:16.559Z,85.30
2022-08-17T00:03:24.968Z,85.40
2022-08-17T00:06:17.072Z,85.90
2022-08-17T00:08:53.965Z,85.30
2022-08-17T00:11:26.119Z,86.00
2022-08-17T00:13:57.787Z,85.70
2022-08-17T00:16:56.467Z,85.60
2022-08-17T00:19:26.425Z,85.80
2022-08-17T00:22:32.472Z,85.60
2022-08-17T00:24:44.742Z,85.90
2022-08-17T00:27:11.661Z,86.20
2022-08-17T00:29:38.613Z,86.30
2022-08-17T00:33:14.210Z,86.60
2022-08-17T00:34:52.617Z,86.50
2022-08-17T00:37:19.552Z,87.50
2022-08-17T00:39:46.531Z,86.70
2022-08-17T00:42:22.287Z,86.90
2022-08-17T00:44:49.202Z,87.70
2022-08-17T00:47:16.109Z,87.30
2022-08-17T00:49:43.018Z,87.50
2022-08-17T00:52:20.484Z,87.80
2022-08-17T00:54:52.332Z,88.20
2022-08-17T00:57:26.485Z,88.10
2022-08-17T01:00:02.330Z,88.30
2022-08-17T01:02:42.241Z,88.20
2022-08-17T01:05:25.403Z,88.10
2022-08-17T01:07:53.121Z,88.00
2022-08-17T01:10:59.690Z,88.10
2022-08-17T01:13:14.908Z,88.30
2022-08-17T01:15:47.616Z,88.00
2022-08-17T01:18:15.063Z,88.40
2022-08-17T01:20:49.085Z,88.40
2022-08-17T01:23:20.579Z,88.80
2022-08-17T01:25:51.793Z,88.80
2022-08-17T01:28:52.468Z,89.10
2022-08-17T01:31:09.157Z,89.20
2022-08-17T01:33:36.829Z,89.50
2022-08-17T01:36:07.140Z,89.60
2022-08-17T01:38:36.759Z,89.70
2022-08-17T01:41:12.208Z,90.00
2022-08-17T01:43:56.793Z,90.40
2022-08-17T01:46:29.233Z,90.20
2022-08-17T01:48:57.615Z,90.30
2022-08-17T01:51:32.921Z,90.20
2022-08-17T01:54:07.816Z,90.50
2022-08-17T01:56:38.967Z,90.40
2022-08-17T01:59:06.401Z,90.50
2022-08-17T02:01:35.138Z,90.50
2022-08-17T02:04:03.641Z,90.70
2022-08-17T02:06:45.384Z,90.60
2022-08-17T02:09:25.962Z,91.10
2022-08-17T02:11:56.399Z,90.80
2022-08-17T02:14:24.624Z,90.80
2022-08-17T02:16:52.896Z,90.80
2022-08-17T02:19:19.907Z,90.90
2022-08-17T02:21:51.435Z,90.90
2022-08-17T02:24:58.219Z,91.00
2022-08-17T02:27:13.569Z,91.00
2022-08-17T02:29:40.549Z,90.90
2022-08-17T02:32:25.432Z,91.00
2022-08-17T02:34:56.718Z,91.10
2022-08-17T02:37:24.309Z,91.10
2022-08-17T02:39:51.295Z,91.10
2022-08-17T02:42:18.487Z,91.10
2022-08-17T02:44:45.394Z,91.20
2022-08-17T02:47:12.538Z,91.20
2022-08-17T02:49:39.440Z,91.10
2022-08-17T02:52:07.860Z,91.20
2022-08-17T02:54:40.235Z,91.20
2022-08-17T02:57:09.855Z,91.20
2022-08-17T02:59:38.018Z,91.20
2022-08-17T03:02:10.434Z,91.10
2022-08-17T03:04:38.689Z,91.20
2022-08-17T03:07:06.669Z,91.20
2022-08-17T03:09:33.638Z,91.30
2022-08-17T03:12:11.040Z,91.30
2022-08-17T03:14:42.185Z,91.60
2022-08-17T03:17:11.233Z,91.50
2022-08-17T03:19:44.439Z,91.50
2022-08-17T03:22:37.337Z,91.50
2022-08-17T03:24:58.738Z,91.50
2022-08-17T03:27:25.684Z,91.50
2022-08-17T03:29:53.264Z,91.50
2022-08-17T03:32:20.722Z,91.50
2022-08-17T03:34:48.901Z,91.50
2022-08-17T03:37:16.354Z,91.60
2022-08-17T03:39:43.307Z,91.60
2022-08-17T03:42:32.396Z,91.70
2022-08-17T03:45:00.377Z,91.80
2022-08-17T03:47:46.032Z,91.70
2022-08-17T03:50:32.475Z,91.70
2022-08-17T03:53:18.989Z,91.70
2022-08-17T03:56:04.499Z,91.90
2022-08-17T03:58:31.416Z,91.90
2022-08-17T04:00:58.540Z,91.80
2022-08-17T04:03:25.536Z,92.00
2022-08-17T04:05:52.457Z,92.00
2022-08-17T04:08:19.366Z,92.00
2022-08-17T04:10:46.652Z,92.00
2022-08-17T04:13:14.128Z,92.10
2022-08-17T04:15:41.636Z,92.10
2022-08-17T04:18:10.926Z,92.20
2022-08-17T04:20:38.139Z,92.20
2022-08-17T04:23:18.099Z,92.20
2022-08-17T04:25:49.187Z,92.30
2022-08-17T04:28:17.996Z,92.10
2022-08-17T04:30:47.315Z,92.00
2022-08-17T04:33:21.863Z,92.10
2022-08-17T04:35:52.536Z,92.20
2022-08-17T04:38:24.386Z,92.20
2022-08-17T04:41:10.480Z,92.30
2022-08-17T04:43:39.610Z,92.40
2022-08-17T04:46:11.446Z,92.40
2022-08-17T04:48:48.075Z,92.50
2022-08-17T04:51:24.164Z,92.60
2022-08-17T04:53:55.837Z,92.60
2022-08-17T04:56:25.862Z,92.70
2022-08-17T04:58:56.687Z,92.60
2022-08-17T05:01:26.496Z,92.50
2022-08-17T05:03:58.939Z,92.30
2022-08-17T05:06:27.455Z,92.30
2022-08-17T05:08:54.924Z,92.30
2022-08-17T05:11:23.747Z,92.10
2022-08-17T05:13:50.704Z,92.00
2022-08-17T05:16:18.730Z,91.90
2022-08-17T05:18:46.414Z,91.90
2022-08-17T05:21:14.098Z,92.10
2022-08-17T05:23:43.323Z,92.20
2022-08-17T05:26:25.726Z,92.40
2022-08-17T05:28:59.508Z,92.60
2022-08-17T05:31:28.665Z,92.70
2022-08-17T05:33:55.804Z,92.80
2022-08-17T05:36:41.831Z,92.80
2022-08-17T05:39:15.930Z,92.90
2022-08-17T05:41:47.623Z,92.90
2022-08-17T05:44:15.061Z,92.90
2022-08-17T05:46:48.400Z,92.70
2022-08-17T05:49:18.907Z,92.70
2022-08-17T05:52:03.972Z,92.70
2022-08-17T05:54:58.497Z,92.60
2022-08-17T05:57:47.623Z,92.50
2022-08-17T06:00:31.286Z,92.60
2022-08-17T06:03:52.161Z,92.60
2022-08-17T06:06:38.480Z,92.60
2022-08-17T06:09:34.161Z,92.30
2022-08-17T06:12:34.952Z,92.40
2022-08-17T06:15:38.095Z,92.40
2022-08-17T06:18:08.938Z,92.50
2022-08-17T06:20:51.591Z,92.40
2022-08-17T06:23:34.028Z,92.10
2022-08-17T06:26:09.028Z,92.00
2022-08-17T06:28:42.461Z,91.90
2022-08-17T06:31:22.232Z,91.70
2022-08-17T06:33:50.180Z,91.50
2022-08-17T06:37:05.590Z,91.40
2022-08-17T06:40:00.614Z,91.30
2022-08-17T06:43:07.436Z,91.20
2022-08-17T06:45:49.538Z,91.10
2022-08-17T06:48:35.156Z,91.30
2022-08-17T06:51:22.184Z,90.90
2022-08-17T06:54:05.164Z,90.80
2022-08-17T06:57:14.555Z,90.30
2022-08-17T06:59:54.858Z,90.10
2022-08-17T07:03:02.646Z,89.70
2022-08-17T07:05:42.335Z,88.90
2022-08-17T07:08:37.987Z,89.00
2022-08-17T07:11:19.159Z,88.80
2022-08-17T07:14:25.358Z,89.00
2022-08-17T07:16:56.218Z,87.90
2022-08-17T07:19:27.689Z,88.10
2022-08-17T07:22:59.338Z,87.60
2022-08-17T07:25:28.574Z,86.50
2022-08-17T07:28:00.219Z,87.30
2022-08-17T07:30:47.370Z,86.70
2022-08-17T07:33:25.668Z,86.30
2022-08-17T07:35:53.541Z,85.50
2022-08-17T07:38:30.315Z,85.40
2022-08-17T07:40:57.809Z,85.40
2022-08-17T07:43:39.515Z,85.40
2022-08-17T07:46:51.047Z,85.60
2022-08-17T07:49:33.372Z,84.30
2022-08-17T07:52:24.179Z,85.00
2022-08-17T07:54:56.617Z,84.60
2022-08-17T07:57:36.107Z,84.40
2022-08-17T08:00:12.690Z,84.20
2022-08-17T08:02:48.066Z,84.10
2022-08-17T08:05:30.857Z,82.40
2022-08-17T08:08:34.043Z,82.10
2022-08-17T08:11:15.360Z,81.60
2022-08-17T08:13:45.518Z,82.30
2022-08-17T08:16:26.984Z,82.70
2022-08-17T08:19:02.519Z,82.20
2022-08-17T08:21:47.152Z,81.80
2022-08-17T08:24:48.769Z,80.70
2022-08-17T08:27:29.330Z,80.90
2022-08-17T08:30:14.101Z,77.20
2022-08-17T08:33:21.705Z,75.40
2022-08-17T08:37:15.991Z,75.30
2022-08-17T08:39:21.357Z,74.80
2022-08-17T08:42:03.441Z,72.80
2022-08-17T08:45:00.884Z,72.90
2022-08-17T08:47:53.853Z,72.80
2022-08-17T08:50:38.126Z,73.00
2022-08-17T08:53:36.175Z,71.70
2022-08-17T08:56:25.202Z,71.30
2022-08-17T08:59:04.866Z,69.80
2022-08-17T09:02:01.401Z,70.40
2022-08-17T09:05:14.201Z,69.20
2022-08-17T09:08:06.192Z,69.20
2022-08-17T09:11:02.373Z,69.50
2022-08-17T09:14:21.145Z,68.40
2022-08-17T09:17:05.079Z,68.80
2022-08-17T09:19:58.223Z,66.90
2022-08-17T09:22:43.768Z,66.80
2022-08-17T09:25:28.898Z,67.80
2022-08-17T09:28:03.737Z,68.30
2022-08-17T09:30:45.490Z,67.20
2022-08-17T09:33:22.781Z,66.40
2022-08-17T09:36:23.745Z,65.40
2022-08-17T09:39:15.946Z,64.80
2022-08-17T09:41:55.821Z,64.80
2022-08-17T09:45:04.025Z,63.90
2022-08-17T09:47:49.584Z,62.50
2022-08-17T09:50:55.506Z,62.80
2022-08-17T09:53:32.040Z,61.90
2022-08-17T09:56:45.980Z,62.20
2022-08-17T09:59:58.372Z,62.20
2022-08-17T10:03:16.137Z,61.50
2022-08-17T10:06:13.352Z,60.50
2022-08-17T10:09:08.756Z,60.80
2022-08-17T10:12:17.057Z,61.40
2022-08-17T10:15:13.503Z,59.90
2022-08-17T10:18:08.097Z,60.10
2022-08-17T10:21:25.282Z,59.80
2022-08-17T10:24:40.346Z,59.80
2022-08-17T10:27:42.807Z,59.70
2022-08-17T10:30:11.321Z,57.80
2022-08-17T10:32:55.141Z,58.40
2022-08-17T10:35:46.069Z,58.10
2022-08-17T10:38:39.065Z,57.60
2022-08-17T10:41:32.576Z,58.20
2022-08-17T10:44:38.631Z,57.70
2022-08-17T10:47:17.133Z,57.70
2022-08-17T10:49:49.484Z,56.80
2022-08-17T10:52:22.819Z,56.70
2022-08-17T10:54:51.817Z,56.80
2022-08-17T10:57:34.028Z,55.70
2022-08-17T11:00:10.374Z,55.50
2022-08-17T11:02:49.502Z,55.00
2022-08-17T11:05:46.619Z,54.80
2022-08-17T11:09:22.509Z,55.70
2022-08-17T11:12:42.338Z,53.80
2022-08-17T11:15:38.771Z,54.60
2022-08-17T11:18:42.272Z,54.70
2022-08-17T11:21:38.503Z,54.90
2022-08-17T11:24:24.134Z,54.00
2022-08-17T11:27:26.463Z,54.70
2022-08-17T11:30:02.522Z,53.90
2022-08-17T11:32:54.413Z,53.80
2022-08-17T11:35:21.710Z,53.30
2022-08-17T11:38:26.311Z,53.10
2022-08-17T11:41:30.416Z,52.20
2022-08-17T11:44:37.585Z,52.10
2022-08-17T11:47:36.679Z,52.50
2022-08-17T11:50:55.480Z,50.40
2022-08-17T11:53:37.545Z,51.70
2022-08-17T11:56:49.089Z,50.50
2022-08-17T11:59:35.830Z,50.60
2022-08-17T12:02:19.858Z,50.90
2022-08-17T12:05:27.409Z,50.80
2022-08-17T12:08:17.678Z,51.60
2022-08-17T12:10:58.507Z,51.70
2022-08-17T12:13:30.548Z,52.10
2022-08-17T12:16:07.151Z,50.90
2022-08-17T12:18:39.446Z,51.00
2022-08-17T12:21:51.219Z,51.20
2022-08-17T12:24:35.375Z,50.10
2022-08-17T12:27:06.298Z,50.60
2022-08-17T12:29:39.097Z,50.40
2022-08-17T12:32:07.315Z,50.80
2022-08-17T12:34:42.708Z,51.50
2022-08-17T12:37:27.721Z,50.80
2022-08-17T12:40:17.954Z,51.50
2022-08-17T12:42:58.283Z,51.00
2022-08-17T12:45:32.449Z,51.70
2022-08-17T12:48:07.862Z,50.60
2022-08-17T12:50:42.441Z,50.40
2022-08-17T12:53:16.108Z,50.90
2022-08-17T12:55:44.369Z,51.40
2022-08-17T12:58:21.760Z,50.70
2022-08-17T13:00:59.383Z,51.00
2022-08-17T13:03:36.373Z,51.90
2022-08-17T13:06:09.462Z,52.40
2022-08-17T13:08:47.937Z,52.10
2022-08-17T13:11:14.701Z,51.90
2022-08-17T13:13:46.300Z,52.30
2022-08-17T13:16:14.192Z,52.70
2022-08-17T13:18:48.660Z,52.40
2022-08-17T13:21:28.128Z,52.10
2022-08-17T13:24:01.167Z,52.60
2022-08-17T13:26:46.687Z,53.40
2022-08-17T13:29:37.249Z,53.50
2022-08-17T13:32:07.927Z,54.00
2022-08-17T13:35:06.539Z,53.50
2022-08-17T13:37:36.059Z,53.20
2022-08-17T13:40:22.815Z,52.70
2022-08-17T13:42:54.143Z,51.80
2022-08-17T13:45:35.563Z,52.40
2022-08-17T13:48:12.349Z,52.10
2022-08-17T13:50:59.496Z,52.50
2022-08-17T13:53:36.445Z,52.50
2022-08-17T13:56:37.815Z,52.50
2022-08-17T13:59:11.756Z,52.60
2022-08-17T14:01:53.339Z,51.90
2022-08-17T14:04:32.105Z,52.00
2022-08-17T14:07:04.857Z,51.80
2022-08-17T14:10:05.132Z,52.10
2022-08-17T14:12:35.422Z,51.80
2022-08-17T14:15:03.094Z,52.00
2022-08-17T14:17:34.970Z,52.20
2022-08-17T14:20:12.094Z,52.00
2022-08-17T14:22:45.497Z,52.70
2022-08-17T14:25:25.335Z,52.50
2022-08-17T14:27:53.970Z,52.30
2022-08-17T14:30:29.102Z,52.30
2022-08-17T14:32:58.030Z,52.80
2022-08-17T14:35:27.481Z,52.80
2022-08-17T14:37:54.626Z,52.90
2022-08-17T14:40:24.390Z,52.90
2022-08-17T14:42:53.147Z,53.30
2022-08-17T14:45:31.511Z,53.40
2022-08-17T14:48:04.023Z,53.20
2022-08-17T14:50:31.841Z,52.70
2022-08-17T14:52:59.247Z,53.00
2022-08-17T14:55:29.148Z,52.90
2022-08-17T14:57:56.046Z,52.90
2022-08-17T15:00:23.183Z,52.70
2022-08-17T15:02:58.278Z,52.50
2022-08-17T15:05:31.475Z,52.30
2022-08-17T15:08:00.890Z,52.80
2022-08-17T15:10:29.168Z,52.80
2022-08-17T15:12:56.822Z,51.80
2022-08-17T15:15:24.090Z,51.70
2022-08-17T15:17:51.590Z,52.40
2022-08-17T15:20:23.757Z,52.50
2022-08-17T15:22:51.090Z,52.40
2022-08-17T15:25:19.405Z,52.50
2022-08-17T15:27:47.397Z,52.50
2022-08-17T15:30:15.482Z,52.40
2022-08-17T15:32:46.852Z,53.00
2022-08-17T15:35:28.222Z,52.70
2022-08-17T15:38:09.747Z,52.90
2022-08-17T15:40:46.110Z,52.80
2022-08-17T15:43:27.041Z,52.70
2022-08-17T15:46:11.920Z,53.00
2022-08-17T15:48:41.831Z,53.00
2022-08-17T15:51:13.960Z,54.00
2022-08-17T15:53:44.658Z,53.20
2022-08-17T15:56:15.046Z,52.80
2022-08-17T15:58:43.865Z,53.10
2022-08-17T16:01:12.451Z,53.50
2022-08-17T16:03:58.374Z,53.30
2022-08-17T16:06:30.798Z,53.40
2022-08-17T16:08:59.341Z,53.50
2022-08-17T16:11:26.474Z,53.50
2022-08-17T16:13:54.735Z,53.50
2022-08-17T16:16:23.683Z,53.20
2022-08-17T16:18:53.599Z,53.30
2022-08-17T16:21:25.726Z,53.10
2022-08-17T16:24:02.317Z,53.20
2022-08-17T16:26:31.813Z,53.30
2022-08-17T16:29:01.818Z,53.60
2022-08-17T16:31:29.346Z,53.60
2022-08-17T16:34:16.257Z,53.80
2022-08-17T16:36:54.905Z,54.00
2022-08-17T16:39:24.254Z,54.30
2022-08-17T16:41:51.173Z,54.40
2022-08-17T16:44:21.340Z,55.00
2022-08-17T16:46:50.187Z,55.50
2022-08-17T16:49:35.612Z,55.80
2022-08-17T16:52:07.252Z,55.80
2022-08-17T16:54:35.251Z,56.20
2022-08-17T16:57:04.910Z,56.40
2022-08-17T16:59:39.653Z,56.80
2022-08-17T17:02:11.302Z,57.00
2022-08-17T17:04:46.202Z,57.10
2022-08-17T17:07:42.917Z,57.40
2022-08-17T17:10:15.441Z,57.40
2022-08-17T17:13:02.119Z,57.50
2022-08-17T17:15:47.503Z,57.40
2022-08-17T17:18:15.948Z,58.10
2022-08-17T17:20:55.521Z,57.60
2022-08-17T17:23:38.149Z,57.80
2022-08-17T17:26:30.323Z,58.00
2022-08-17T17:29:47.635Z,57.90
2022-08-17T17:32:32.143Z,58.20
2022-08-17T17:35:16.908Z,58.20
2022-08-17T17:37:45.404Z,58.70
2022-08-17T17:40:25.065Z,58.50
2022-08-17T17:42:55.242Z,58.70
2022-08-17T17:45:31.836Z,58.60
2022-08-17T17:47:58.780Z,58.90
2022-08-17T17:50:37.388Z,59.00
2022-08-17T17:53:35.180Z,59.10
2022-08-17T17:56:44.090Z,59.30
2022-08-17T17:59:29.710Z,59.30
2022-08-17T18:02:52.949Z,59.40
2022-08-17T18:05:37.109Z,59.60
2022-08-17T18:08:34.730Z,59.70
2022-08-17T18:11:59.059Z,59.70
2022-08-17T18:14:37.566Z,59.70
2022-08-17T18:17:06.009Z,59.50
2022-08-17T18:19:33.162Z,59.60
2022-08-17T18:22:06.866Z,59.70
2022-08-17T18:24:40.511Z,59.90
2022-08-17T18:27:37.523Z,59.90
2022-08-17T18:30:27.526Z,60.20
2022-08-17T18:32:54.434Z,60.70
2022-08-17T18:35:28.811Z,60.50
2022-08-17T18:38:20.426Z,60.70
2022-08-17T18:41:20.655Z,60.90
2022-08-17T18:44:06.035Z,61.30
2022-08-17T18:46:36.746Z,61.30
2022-08-17T18:49:24.310Z,61.70
2022-08-17T18:52:23.942Z,61.40
2022-08-17T18:55:13.616Z,61.80
2022-08-17T18:57:47.418Z,62.00
2022-08-17T19:00:32.584Z,62.00
2022-08-17T19:03:18.365Z,62.50
2022-08-17T19:05:51.960Z,62.50
2022-08-17T19:08:31.119Z,62.60
2022-08-17T19:11:08.153Z,62.70
2022-08-17T19:13:53.794Z,62.90
2022-08-17T19:16:31.120Z,63.10
2022-08-17T19:19:10.604Z,63.50
2022-08-17T19:21:55.926Z,63.70
2022-08-17T19:24:27.083Z,63.90
2022-08-17T19:27:06.283Z,64.10
2022-08-17T19:30:08.431Z,64.30
2022-08-17T19:32:36.651Z,64.70
2022-08-17T19:35:06.734Z,64.50
2022-08-17T19:38:06.276Z,65.60
2022-08-17T19:41:01.906Z,65.40
2022-08-17T19:44:12.603Z,65.30
2022-08-17T19:46:56.280Z,65.70
2022-08-17T19:50:08.221Z,65.80
2022-08-17T19:53:07.557Z,66.10
2022-08-17T19:56:16.703Z,66.60
2022-08-17T19:59:03.795Z,67.40
2022-08-17T20:01:38.762Z,67.80
2022-08-17T20:04:31.869Z,67.80
2022-08-17T20:07:24.895Z,68.10
2022-08-17T20:09:58.778Z,68.80
2022-08-17T20:12:35.820Z,69.00
2022-08-17T20:15:30.037Z,69.60
2022-08-17T20:18:00.339Z,70.10
2022-08-17T20:21:00.506Z,70.10
2022-08-17T20:23:41.035Z,70.80
2022-08-17T20:26:39.040Z,70.40
2022-08-17T20:29:15.052Z,71.50
2022-08-17T20:31:56.622Z,71.50
2022-08-17T20:34:33.434Z,71.50
2022-08-17T20:37:29.264Z,71.70
2022-08-17T20:39:56.059Z,72.60
2022-08-17T20:42:22.881Z,72.00
2022-08-17T20:45:02.833Z,72.10
2022-08-17T20:48:00.785Z,72.50
2022-08-17T20:50:37.876Z,73.00
2022-08-17T20:53:11.251Z,73.40
2022-08-17T20:55:52.425Z,73.60
2022-08-17T20:58:30.062Z,73.60
2022-08-17T21:00:58.902Z,74.40
2022-08-17T21:03:28.672Z,74.80
2022-08-17T21:06:19.012Z,74.70
2022-08-17T21:09:29.792Z,75.50
2022-08-17T21:12:04.674Z,76.50
2022-08-17T21:15:04.229Z,76.80
2022-08-17T21:17:39.692Z,76.90
2022-08-17T21:20:32.587Z,76.70
2022-08-17T21:23:26.209Z,77.00
2022-08-17T21:26:17.466Z,78.10
2022-08-17T21:29:00.819Z,77.50
2022-08-17T21:31:40.644Z,77.20
2022-08-17T21:34:16.666Z,78.00
2022-08-17T21:36:45.414Z,78.70
2022-08-17T21:39:21.450Z,78.40
2022-08-17T21:41:56.291Z,78.70
2022-08-17T21:44:37.718Z,79.80
2022-08-17T21:47:27.505Z,80.70
2022-08-17T21:49:59.550Z,80.40
2022-08-17T21:52:27.659Z,80.10
2022-08-17T21:55:02.247Z,80.30
2022-08-17T21:57:30.204Z,80.80
2022-08-17T22:00:01.384Z,80.90
2022-08-17T22:02:37.757Z,81.50
2022-08-17T22:05:12.186Z,81.70
2022-08-17T22:07:50.725Z,81.00
2022-08-17T22:10:41.906Z,80.90
2022-08-17T22:13:19.929Z,81.00
2022-08-17T22:16:15.343Z,80.70
2022-08-17T22:18:44.686Z,81.50
2022-08-17T22:21:11.588Z,81.00
2022-08-17T22:24:02.503Z,81.30
2022-08-17T22:27:11.434Z,81.70
2022-08-17T22:29:59.437Z,82.40
2022-08-17T22:32:45.905Z,82.90
2022-08-17T22:35:36.985Z,82.80
2022-08-17T22:38:19.119Z,83.00
2022-08-17T22:40:56.811Z,82.90
2022-08-17T22:43:28.524Z,82.90
2022-08-17T22:45:59.310Z,83.00
2022-08-17T22:48:29.580Z,83.10
2022-08-17T22:51:14.724Z,82.90
2022-08-17T22:54:21.713Z,83.30
2022-08-17T22:57:21.618Z,83.30
2022-08-17T22:59:55.052Z,83.00
2022-08-17T23:02:32.105Z,83.40
2022-08-17T23:05:13.857Z,83.50
2022-08-17T23:07:42.523Z,84.00
2022-08-17T23:10:12.035Z,84.20
2022-08-17T23:12:39.850Z,84.10
2022-08-17T23:15:15.437Z,84.40
2022-08-17T23:17:42.876Z,84.80
2022-08-17T23:20:17.612Z,85.00
2022-08-17T23:22:51.871Z,84.90
2022-08-17T23:25:33.448Z,85.30
2022-08-17T23:28:03.797Z,85.50
2022-08-17T23:30:34.065Z,85.30
2022-08-17T23:33:07.793Z,85.60
2022-08-17T23:35:39.317Z,86.10
2022-08-17T23:38:09.298Z,86.20
2022-08-17T23:40:37.749Z,86.70
2022-08-17T23:43:24.471Z,87.00
2022-08-17T23:45:58.499Z,87.00
2022-08-17T23:48:35.399Z,87.50
2022-08-17T23:51:14.570Z,87.50
2022-08-17T23:53:46.389Z,87.80
2022-08-17T23:56:14.147Z,88.00
2022-08-17T23:58:43.267Z,88.20
